sensor_id;sensor_type;location;lat;lon;timestamp;P1;durP1;ratioP1;P2;durP2;ratioP2
846;SDS011;410;48.954;9.474;2023-03-11T00:01:14;2.45;;;2.00;;
846;SDS011;410;48.954;9.474;2023-03-11T00:03:17;2.20;;;1.80;;
846;SDS011;410;48.954;9.474;2023-03-11T00:05:24;3.65;;;2.53;;
846;SDS011;410;48.954;9.474;2023-03-11T00:07:28;2.08;;;1.88;;
846;SDS011;410;48.954;9.474;2023-03-11T00:09:33;1.92;;;1.60;;
846;SDS011;410;48.954;9.474;2023-03-11T00:11:36;2.20;;;2.00;;
846;SDS011;410;48.954;9.474;2023-03-11T00:13:40;2.88;;;1.85;;
846;SDS011;410;48.954;9.474;2023-03-11T00:15:43;2.00;;;1.80;;
846;SDS011;410;48.954;9.474;2023-03-11T00:17:49;4.22;;;1.67;;
846;SDS011;410;48.954;9.474;2023-03-11T00:19:52;2.25;;;1.75;;
846;SDS011;410;48.954;9.474;2023-03-11T00:21:55;3.35;;;1.80;;
846;SDS011;410;48.954;9.474;2023-03-11T00:23:58;1.88;;;1.55;;
846;SDS011;410;48.954;9.474;2023-03-11T00:26:05;1.83;;;1.60;;
846;SDS011;410;48.954;9.474;2023-03-11T00:28:08;3.33;;;1.35;;
846;SDS011;410;48.954;9.474;2023-03-11T00:30:12;2.05;;;1.33;;
846;SDS011;410;48.954;9.474;2023-03-11T00:32:16;1.85;;;1.40;;
846;SDS011;410;48.954;9.474;2023-03-11T00:34:19;2.25;;;2.05;;
846;SDS011;410;48.954;9.474;2023-03-11T00:36:23;2.85;;;2.20;;
846;SDS011;410;48.954;9.474;2023-03-11T00:38:29;1.67;;;1.33;;
846;SDS011;410;48.954;9.474;2023-03-11T00:40:33;2.20;;;1.50;;
846;SDS011;410;48.954;9.474;2023-03-11T00:42:38;1.92;;;1.50;;
846;SDS011;410;48.954;9.474;2023-03-11T00:44:44;1.95;;;1.50;;
846;SDS011;410;48.954;9.474;2023-03-11T00:46:47;1.77;;;1.67;;
846;SDS011;410;48.954;9.474;2023-03-11T00:48:50;2.00;;;1.58;;
846;SDS011;410;48.954;9.474;2023-03-11T00:50:53;1.90;;;1.63;;
846;SDS011;410;48.954;9.474;2023-03-11T00:52:56;1.80;;;1.42;;
846;SDS011;410;48.954;9.474;2023-03-11T00:55:00;2.85;;;1.77;;
846;SDS011;410;48.954;9.474;2023-03-11T00:57:04;2.42;;;1.67;;
846;SDS011;410;48.954;9.474;2023-03-11T00:59:08;2.03;;;1.45;;
846;SDS011;410;48.954;9.474;2023-03-11T01:01:13;3.35;;;1.70;;
846;SDS011;410;48.954;9.474;2023-03-11T01:03:17;2.30;;;1.70;;
846;SDS011;410;48.954;9.474;2023-03-11T01:05:21;2.10;;;1.70;;
846;SDS011;410;48.954;9.474;2023-03-11T01:07:25;2.53;;;1.75;;
846;SDS011;410;48.954;9.474;2023-03-11T01:09:29;2.17;;;1.88;;
846;SDS011;410;48.954;9.474;2023-03-11T01:11:32;1.75;;;1.60;;
846;SDS011;410;48.954;9.474;2023-03-11T01:13:35;1.70;;;1.25;;
846;SDS011;410;48.954;9.474;2023-03-11T01:15:39;2.55;;;1.10;;
846;SDS011;410;48.954;9.474;2023-03-11T01:17:43;1.95;;;1.10;;
846;SDS011;410;48.954;9.474;2023-03-11T01:19:46;1.20;;;1.00;;
846;SDS011;410;48.954;9.474;2023-03-11T01:21:49;1.50;;;0.80;;
846;SDS011;410;48.954;9.474;2023-03-11T01:23:52;1.75;;;1.00;;
846;SDS011;410;48.954;9.474;2023-03-11T01:25:55;3.38;;;1.00;;
846;SDS011;410;48.954;9.474;2023-03-11T01:28:00;1.33;;;0.88;;
846;SDS011;410;48.954;9.474;2023-03-11T01:30:04;1.10;;;0.82;;
846;SDS011;410;48.954;9.474;2023-03-11T01:32:10;1.75;;;0.73;;
846;SDS011;410;48.954;9.474;2023-03-11T01:34:13;1.00;;;0.70;;
846;SDS011;410;48.954;9.474;2023-03-11T01:36:16;1.77;;;0.90;;
846;SDS011;410;48.954;9.474;2023-03-11T01:38:19;1.23;;;0.80;;
846;SDS011;410;48.954;9.474;2023-03-11T01:40:23;1.98;;;0.80;;
846;SDS011;410;48.954;9.474;2023-03-11T01:42:29;1.55;;;1.05;;
846;SDS011;410;48.954;9.474;2023-03-11T01:44:32;1.27;;;0.80;;
846;SDS011;410;48.954;9.474;2023-03-11T01:46:38;2.58;;;0.90;;
846;SDS011;410;48.954;9.474;2023-03-11T01:49:19;2.17;;;0.70;;
846;SDS011;410;48.954;9.474;2023-03-11T01:51:24;1.27;;;0.70;;
846;SDS011;410;48.954;9.474;2023-03-11T01:53:29;1.95;;;0.88;;
846;SDS011;410;48.954;9.474;2023-03-11T01:55:32;1.83;;;0.82;;
846;SDS011;410;48.954;9.474;2023-03-11T01:57:36;1.85;;;0.90;;
846;SDS011;410;48.954;9.474;2023-03-11T01:59:41;1.13;;;0.73;;
846;SDS011;410;48.954;9.474;2023-03-11T02:01:47;3.92;;;0.90;;
846;SDS011;410;48.954;9.474;2023-03-11T02:03:54;2.83;;;0.80;;
846;SDS011;410;48.954;9.474;2023-03-11T02:06:00;2.50;;;0.80;;
846;SDS011;410;48.954;9.474;2023-03-11T02:08:05;2.50;;;0.80;;
846;SDS011;410;48.954;9.474;2023-03-11T02:10:10;2.22;;;0.70;;
846;SDS011;410;48.954;9.474;2023-03-11T02:12:14;1.30;;;0.80;;
846;SDS011;410;48.954;9.474;2023-03-11T02:14:17;1.48;;;0.60;;
846;SDS011;410;48.954;9.474;2023-03-11T02:16:26;1.70;;;0.88;;
846;SDS011;410;48.954;9.474;2023-03-11T02:18:29;1.95;;;0.77;;
846;SDS011;410;48.954;9.474;2023-03-11T02:20:35;2.63;;;0.90;;
846;SDS011;410;48.954;9.474;2023-03-11T02:22:46;2.83;;;0.80;;
846;SDS011;410;48.954;9.474;2023-03-11T02:24:53;2.80;;;0.90;;
846;SDS011;410;48.954;9.474;2023-03-11T02:27:02;2.28;;;0.70;;
846;SDS011;410;48.954;9.474;2023-03-11T02:29:08;2.75;;;0.85;;
846;SDS011;410;48.954;9.474;2023-03-11T02:31:12;3.35;;;0.70;;
846;SDS011;410;48.954;9.474;2023-03-11T02:33:16;1.50;;;0.80;;
846;SDS011;410;48.954;9.474;2023-03-11T02:35:21;1.92;;;0.85;;
846;SDS011;410;48.954;9.474;2023-03-11T02:37:28;4.68;;;0.88;;
846;SDS011;410;48.954;9.474;2023-03-11T02:39:38;1.98;;;1.00;;
846;SDS011;410;48.954;9.474;2023-03-11T02:41:45;1.60;;;0.70;;
846;SDS011;410;48.954;9.474;2023-03-11T02:43:50;1.85;;;0.90;;
846;SDS011;410;48.954;9.474;2023-03-11T02:45:53;1.35;;;0.82;;
846;SDS011;410;48.954;9.474;2023-03-11T02:47:57;2.63;;;1.00;;
846;SDS011;410;48.954;9.474;2023-03-11T02:50:03;1.25;;;0.82;;
846;SDS011;410;48.954;9.474;2023-03-11T02:52:07;1.10;;;0.82;;
846;SDS011;410;48.954;9.474;2023-03-11T02:54:10;1.23;;;0.85;;
846;SDS011;410;48.954;9.474;2023-03-11T02:56:14;1.70;;;1.10;;
846;SDS011;410;48.954;9.474;2023-03-11T02:58:17;1.92;;;0.90;;
846;SDS011;410;48.954;9.474;2023-03-11T03:00:21;1.70;;;0.80;;
846;SDS011;410;48.954;9.474;2023-03-11T03:02:36;3.22;;;1.00;;
846;SDS011;410;48.954;9.474;2023-03-11T03:04:39;2.72;;;1.10;;
846;SDS011;410;48.954;9.474;2023-03-11T03:06:42;1.50;;;0.88;;
846;SDS011;410;48.954;9.474;2023-03-11T03:08:45;2.42;;;1.00;;
846;SDS011;410;48.954;9.474;2023-03-11T03:10:48;2.45;;;0.93;;
846;SDS011;410;48.954;9.474;2023-03-11T03:12:51;1.30;;;0.90;;
846;SDS011;410;48.954;9.474;2023-03-11T03:14:55;4.03;;;1.30;;
846;SDS011;410;48.954;9.474;2023-03-11T03:17:00;0.90;;;0.80;;
846;SDS011;410;48.954;9.474;2023-03-11T03:19:03;1.40;;;0.77;;
846;SDS011;410;48.954;9.474;2023-03-11T03:21:07;7.22;;;1.10;;
846;SDS011;410;48.954;9.474;2023-03-11T03:23:10;3.78;;;1.20;;
846;SDS011;410;48.954;9.474;2023-03-11T03:25:13;3.47;;;1.00;;
846;SDS011;410;48.954;9.474;2023-03-11T03:27:16;1.30;;;0.90;;
846;SDS011;410;48.954;9.474;2023-03-11T03:29:19;2.13;;;0.98;;
846;SDS011;410;48.954;9.474;2023-03-11T03:31:23;4.00;;;1.30;;
846;SDS011;410;48.954;9.474;2023-03-11T03:33:28;2.55;;;1.00;;
846;SDS011;410;48.954;9.474;2023-03-11T03:35:31;2.17;;;0.90;;
846;SDS011;410;48.954;9.474;2023-03-11T03:37:39;3.47;;;1.13;;
846;SDS011;410;48.954;9.474;2023-03-11T03:39:42;3.08;;;1.10;;
846;SDS011;410;48.954;9.474;2023-03-11T03:41:47;2.08;;;1.30;;
846;SDS011;410;48.954;9.474;2023-03-11T03:43:50;1.90;;;0.80;;
846;SDS011;410;48.954;9.474;2023-03-11T03:45:55;1.10;;;0.88;;
846;SDS011;410;48.954;9.474;2023-03-11T03:48:01;2.70;;;1.50;;
846;SDS011;410;48.954;9.474;2023-03-11T03:50:10;4.25;;;2.95;;
846;SDS011;410;48.954;9.474;2023-03-11T03:52:17;4.63;;;1.20;;
846;SDS011;410;48.954;9.474;2023-03-11T03:54:20;3.45;;;1.20;;
846;SDS011;410;48.954;9.474;2023-03-11T03:56:24;2.55;;;1.30;;
846;SDS011;410;48.954;9.474;2023-03-11T03:58:27;3.10;;;1.17;;
846;SDS011;410;48.954;9.474;2023-03-11T04:00:30;2.53;;;1.40;;
846;SDS011;410;48.954;9.474;2023-03-11T04:02:36;1.50;;;1.15;;
846;SDS011;410;48.954;9.474;2023-03-11T04:04:41;3.17;;;1.50;;
846;SDS011;410;48.954;9.474;2023-03-11T04:06:46;1.60;;;1.20;;
846;SDS011;410;48.954;9.474;2023-03-11T04:08:49;1.85;;;1.20;;
846;SDS011;410;48.954;9.474;2023-03-11T04:10:56;2.50;;;1.10;;
846;SDS011;410;48.954;9.474;2023-03-11T04:13:00;1.60;;;1.15;;
846;SDS011;410;48.954;9.474;2023-03-11T04:15:04;1.50;;;1.40;;
846;SDS011;410;48.954;9.474;2023-03-11T04:17:09;2.22;;;1.30;;
846;SDS011;410;48.954;9.474;2023-03-11T04:19:13;2.30;;;1.30;;
846;SDS011;410;48.954;9.474;2023-03-11T04:21:16;2.45;;;1.20;;
846;SDS011;410;48.954;9.474;2023-03-11T04:23:22;1.42;;;1.10;;
846;SDS011;410;48.954;9.474;2023-03-11T04:25:26;2.42;;;1.10;;
846;SDS011;410;48.954;9.474;2023-03-11T04:27:29;2.10;;;1.05;;
846;SDS011;410;48.954;9.474;2023-03-11T04:29:36;1.92;;;1.00;;
846;SDS011;410;48.954;9.474;2023-03-11T04:31:40;4.72;;;1.85;;
846;SDS011;410;48.954;9.474;2023-03-11T04:33:43;5.40;;;1.48;;
846;SDS011;410;48.954;9.474;2023-03-11T04:35:47;3.47;;;1.40;;
846;SDS011;410;48.954;9.474;2023-03-11T04:37:52;2.85;;;1.23;;
846;SDS011;410;48.954;9.474;2023-03-11T04:39:57;5.00;;;1.30;;
846;SDS011;410;48.954;9.474;2023-03-11T04:42:00;4.13;;;1.53;;
846;SDS011;410;48.954;9.474;2023-03-11T04:44:05;6.30;;;1.50;;
846;SDS011;410;48.954;9.474;2023-03-11T04:46:08;3.15;;;1.48;;
846;SDS011;410;48.954;9.474;2023-03-11T04:48:16;2.10;;;1.25;;
846;SDS011;410;48.954;9.474;2023-03-11T04:50:20;3.10;;;1.33;;
846;SDS011;410;48.954;9.474;2023-03-11T04:52:23;2.78;;;1.33;;
846;SDS011;410;48.954;9.474;2023-03-11T04:54:28;2.55;;;1.00;;
846;SDS011;410;48.954;9.474;2023-03-11T04:56:32;3.45;;;1.40;;
846;SDS011;410;48.954;9.474;2023-03-11T04:58:36;2.50;;;1.27;;
846;SDS011;410;48.954;9.474;2023-03-11T05:00:40;4.32;;;1.20;;
846;SDS011;410;48.954;9.474;2023-03-11T05:02:46;3.80;;;1.50;;
846;SDS011;410;48.954;9.474;2023-03-11T05:04:49;5.03;;;1.58;;
846;SDS011;410;48.954;9.474;2023-03-11T05:06:53;1.73;;;1.20;;
846;SDS011;410;48.954;9.474;2023-03-11T05:08:58;3.40;;;1.10;;
846;SDS011;410;48.954;9.474;2023-03-11T05:11:02;4.80;;;2.22;;
846;SDS011;410;48.954;9.474;2023-03-11T05:13:10;2.03;;;1.15;;
846;SDS011;410;48.954;9.474;2023-03-11T05:15:14;4.85;;;1.20;;
846;SDS011;410;48.954;9.474;2023-03-11T05:17:17;4.22;;;1.55;;
846;SDS011;410;48.954;9.474;2023-03-11T05:19:22;4.07;;;1.15;;
846;SDS011;410;48.954;9.474;2023-03-11T05:21:42;2.13;;;1.13;;
846;SDS011;410;48.954;9.474;2023-03-11T05:23:45;4.97;;;1.40;;
846;SDS011;410;48.954;9.474;2023-03-11T05:25:48;2.90;;;1.40;;
846;SDS011;410;48.954;9.474;2023-03-11T05:27:51;3.70;;;1.08;;
846;SDS011;410;48.954;9.474;2023-03-11T05:29:56;4.57;;;1.40;;
846;SDS011;410;48.954;9.474;2023-03-11T05:32:01;3.50;;;1.25;;
846;SDS011;410;48.954;9.474;2023-03-11T05:34:04;3.10;;;1.40;;
846;SDS011;410;48.954;9.474;2023-03-11T05:36:08;1.90;;;1.10;;
846;SDS011;410;48.954;9.474;2023-03-11T05:38:15;4.60;;;1.40;;
846;SDS011;410;48.954;9.474;2023-03-11T05:40:19;2.92;;;1.35;;
846;SDS011;410;48.954;9.474;2023-03-11T05:42:23;4.97;;;1.60;;
846;SDS011;410;48.954;9.474;2023-03-11T05:44:28;3.45;;;1.40;;
846;SDS011;410;48.954;9.474;2023-03-11T05:46:33;2.80;;;1.40;;
846;SDS011;410;48.954;9.474;2023-03-11T05:48:39;2.03;;;1.05;;
846;SDS011;410;48.954;9.474;2023-03-11T05:50:42;3.58;;;1.73;;
846;SDS011;410;48.954;9.474;2023-03-11T05:52:45;2.15;;;1.50;;
846;SDS011;410;48.954;9.474;2023-03-11T05:54:49;4.18;;;1.55;;
846;SDS011;410;48.954;9.474;2023-03-11T05:56:56;5.95;;;1.38;;
846;SDS011;410;48.954;9.474;2023-03-11T05:58:59;3.88;;;1.60;;
846;SDS011;410;48.954;9.474;2023-03-11T06:01:06;3.47;;;1.90;;
846;SDS011;410;48.954;9.474;2023-03-11T06:03:12;2.13;;;1.27;;
846;SDS011;410;48.954;9.474;2023-03-11T06:05:15;3.05;;;1.38;;
846;SDS011;410;48.954;9.474;2023-03-11T06:07:20;2.22;;;1.40;;
846;SDS011;410;48.954;9.474;2023-03-11T06:09:26;2.22;;;1.40;;
846;SDS011;410;48.954;9.474;2023-03-11T06:11:30;4.90;;;1.88;;
846;SDS011;410;48.954;9.474;2023-03-11T06:13:33;2.47;;;1.50;;
846;SDS011;410;48.954;9.474;2023-03-11T06:15:37;3.00;;;1.80;;
846;SDS011;410;48.954;9.474;2023-03-11T06:17:40;3.50;;;2.33;;
846;SDS011;410;48.954;9.474;2023-03-11T06:19:45;3.78;;;1.63;;
846;SDS011;410;48.954;9.474;2023-03-11T06:21:49;4.65;;;1.70;;
846;SDS011;410;48.954;9.474;2023-03-11T06:23:52;5.10;;;1.70;;
846;SDS011;410;48.954;9.474;2023-03-11T06:25:55;3.33;;;1.80;;
846;SDS011;410;48.954;9.474;2023-03-11T06:28:00;5.38;;;2.13;;
846;SDS011;410;48.954;9.474;2023-03-11T06:30:03;4.55;;;1.70;;
846;SDS011;410;48.954;9.474;2023-03-11T06:32:14;6.00;;;1.85;;
846;SDS011;410;48.954;9.474;2023-03-11T06:34:18;6.60;;;1.75;;
846;SDS011;410;48.954;9.474;2023-03-11T06:36:23;4.72;;;1.90;;
846;SDS011;410;48.954;9.474;2023-03-11T06:38:27;3.05;;;1.63;;
846;SDS011;410;48.954;9.474;2023-03-11T06:40:31;4.30;;;1.75;;
846;SDS011;410;48.954;9.474;2023-03-11T06:42:34;5.05;;;2.20;;
846;SDS011;410;48.954;9.474;2023-03-11T06:44:39;4.22;;;2.20;;
846;SDS011;410;48.954;9.474;2023-03-11T06:46:42;3.95;;;2.08;;
846;SDS011;410;48.954;9.474;2023-03-11T06:48:46;4.07;;;2.15;;
846;SDS011;410;48.954;9.474;2023-03-11T06:50:54;4.82;;;2.28;;
846;SDS011;410;48.954;9.474;2023-03-11T06:53:00;4.38;;;1.50;;
846;SDS011;410;48.954;9.474;2023-03-11T06:55:04;6.43;;;1.85;;
846;SDS011;410;48.954;9.474;2023-03-11T06:57:09;6.50;;;3.40;;
846;SDS011;410;48.954;9.474;2023-03-11T06:59:13;3.58;;;3.25;;
846;SDS011;410;48.954;9.474;2023-03-11T07:01:18;4.32;;;2.38;;
846;SDS011;410;48.954;9.474;2023-03-11T07:03:23;3.95;;;2.08;;
846;SDS011;410;48.954;9.474;2023-03-11T07:05:26;5.22;;;2.80;;
846;SDS011;410;48.954;9.474;2023-03-11T07:07:36;6.32;;;2.30;;
846;SDS011;410;48.954;9.474;2023-03-11T07:09:40;6.13;;;2.88;;
846;SDS011;410;48.954;9.474;2023-03-11T07:11:46;4.97;;;2.22;;
846;SDS011;410;48.954;9.474;2023-03-11T07:13:57;4.50;;;2.65;;
846;SDS011;410;48.954;9.474;2023-03-11T07:16:04;3.85;;;2.17;;
846;SDS011;410;48.954;9.474;2023-03-11T07:18:08;5.32;;;1.83;;
846;SDS011;410;48.954;9.474;2023-03-11T07:20:11;4.45;;;1.67;;
846;SDS011;410;48.954;9.474;2023-03-11T07:22:14;6.25;;;1.98;;
846;SDS011;410;48.954;9.474;2023-03-11T07:24:20;4.40;;;2.33;;
846;SDS011;410;48.954;9.474;2023-03-11T07:26:25;5.32;;;1.70;;
846;SDS011;410;48.954;9.474;2023-03-11T07:28:29;4.30;;;2.50;;
846;SDS011;410;48.954;9.474;2023-03-11T07:30:33;5.32;;;2.45;;
846;SDS011;410;48.954;9.474;2023-03-11T07:32:36;7.18;;;2.30;;
846;SDS011;410;48.954;9.474;2023-03-11T07:34:39;5.03;;;2.00;;
846;SDS011;410;48.954;9.474;2023-03-11T07:36:43;5.30;;;2.05;;
846;SDS011;410;48.954;9.474;2023-03-11T07:38:46;3.95;;;1.92;;
846;SDS011;410;48.954;9.474;2023-03-11T07:40:56;8.40;;;2.30;;
846;SDS011;410;48.954;9.474;2023-03-11T07:43:01;4.22;;;2.17;;
846;SDS011;410;48.954;9.474;2023-03-11T07:45:07;3.65;;;2.90;;
846;SDS011;410;48.954;9.474;2023-03-11T07:47:11;7.95;;;2.58;;
846;SDS011;410;48.954;9.474;2023-03-11T07:49:14;3.08;;;2.17;;
846;SDS011;410;48.954;9.474;2023-03-11T07:51:18;3.25;;;1.85;;
846;SDS011;410;48.954;9.474;2023-03-11T07:53:25;6.97;;;2.17;;
846;SDS011;410;48.954;9.474;2023-03-11T07:55:32;2.58;;;2.00;;
846;SDS011;410;48.954;9.474;2023-03-11T07:57:35;4.72;;;2.20;;
846;SDS011;410;48.954;9.474;2023-03-11T07:59:39;5.97;;;3.92;;
846;SDS011;410;48.954;9.474;2023-03-11T08:01:43;5.00;;;2.83;;
846;SDS011;410;48.954;9.474;2023-03-11T08:03:48;4.82;;;2.13;;
846;SDS011;410;48.954;9.474;2023-03-11T08:05:53;4.60;;;2.42;;
846;SDS011;410;48.954;9.474;2023-03-11T08:07:56;4.70;;;1.88;;
846;SDS011;410;48.954;9.474;2023-03-11T08:09:59;4.35;;;1.95;;
846;SDS011;410;48.954;9.474;2023-03-11T08:12:03;3.78;;;2.03;;
846;SDS011;410;48.954;9.474;2023-03-11T08:14:06;3.80;;;3.00;;
846;SDS011;410;48.954;9.474;2023-03-11T08:16:11;4.55;;;2.00;;
846;SDS011;410;48.954;9.474;2023-03-11T08:18:16;5.05;;;2.20;;
846;SDS011;410;48.954;9.474;2023-03-11T08:20:19;4.63;;;1.90;;
846;SDS011;410;48.954;9.474;2023-03-11T08:22:22;4.20;;;2.20;;
846;SDS011;410;48.954;9.474;2023-03-11T08:24:25;5.10;;;2.47;;
846;SDS011;410;48.954;9.474;2023-03-11T08:26:28;5.45;;;1.60;;
846;SDS011;410;48.954;9.474;2023-03-11T08:28:32;4.85;;;1.50;;
846;SDS011;410;48.954;9.474;2023-03-11T08:30:36;3.47;;;2.20;;
846;SDS011;410;48.954;9.474;2023-03-11T08:32:43;5.13;;;1.92;;
846;SDS011;410;48.954;9.474;2023-03-11T08:34:46;4.18;;;1.75;;
846;SDS011;410;48.954;9.474;2023-03-11T08:36:49;4.07;;;1.50;;
846;SDS011;410;48.954;9.474;2023-03-11T08:38:53;2.83;;;1.70;;
846;SDS011;410;48.954;9.474;2023-03-11T08:40:56;3.13;;;1.80;;
846;SDS011;410;48.954;9.474;2023-03-11T08:42:59;8.70;;;1.80;;
846;SDS011;410;48.954;9.474;2023-03-11T08:45:02;6.63;;;2.28;;
846;SDS011;410;48.954;9.474;2023-03-11T08:47:06;4.45;;;2.55;;
846;SDS011;410;48.954;9.474;2023-03-11T08:49:11;5.47;;;1.50;;
846;SDS011;410;48.954;9.474;2023-03-11T08:51:14;3.88;;;1.70;;
846;SDS011;410;48.954;9.474;2023-03-11T08:53:17;5.07;;;2.30;;
846;SDS011;410;48.954;9.474;2023-03-11T08:55:20;3.55;;;1.83;;
846;SDS011;410;48.954;9.474;2023-03-11T08:57:28;4.95;;;2.30;;
846;SDS011;410;48.954;9.474;2023-03-11T08:59:31;5.53;;;1.65;;
846;SDS011;410;48.954;9.474;2023-03-11T09:01:34;3.55;;;1.73;;
846;SDS011;410;48.954;9.474;2023-03-11T09:03:37;4.07;;;1.98;;
846;SDS011;410;48.954;9.474;2023-03-11T09:05:42;4.75;;;1.73;;
846;SDS011;410;48.954;9.474;2023-03-11T09:07:45;4.22;;;1.67;;
846;SDS011;410;48.954;9.474;2023-03-11T09:09:48;6.90;;;2.10;;
846;SDS011;410;48.954;9.474;2023-03-11T09:11:52;7.65;;;2.03;;
846;SDS011;410;48.954;9.474;2023-03-11T09:13:55;4.97;;;1.60;;
846;SDS011;410;48.954;9.474;2023-03-11T09:15:58;5.20;;;2.03;;
846;SDS011;410;48.954;9.474;2023-03-11T09:18:01;5.15;;;1.50;;
846;SDS011;410;48.954;9.474;2023-03-11T09:20:05;4.05;;;1.60;;
846;SDS011;410;48.954;9.474;2023-03-11T09:22:10;1.98;;;1.65;;
846;SDS011;410;48.954;9.474;2023-03-11T09:24:13;5.07;;;1.80;;
846;SDS011;410;48.954;9.474;2023-03-11T09:26:17;3.80;;;1.75;;
846;SDS011;410;48.954;9.474;2023-03-11T09:28:20;9.68;;;2.67;;
846;SDS011;410;48.954;9.474;2023-03-11T09:30:23;7.97;;;2.00;;
846;SDS011;410;48.954;9.474;2023-03-11T09:32:27;3.75;;;1.90;;
846;SDS011;410;48.954;9.474;2023-03-11T09:34:30;6.68;;;2.28;;
846;SDS011;410;48.954;9.474;2023-03-11T09:36:33;3.50;;;1.73;;
846;SDS011;410;48.954;9.474;2023-03-11T09:38:38;3.67;;;1.63;;
846;SDS011;410;48.954;9.474;2023-03-11T09:40:44;5.00;;;2.10;;
846;SDS011;410;48.954;9.474;2023-03-11T09:42:53;6.70;;;2.08;;
846;SDS011;410;48.954;9.474;2023-03-11T09:45:00;2.67;;;1.40;;
846;SDS011;410;48.954;9.474;2023-03-11T09:47:14;3.72;;;1.60;;
846;SDS011;410;48.954;9.474;2023-03-11T09:49:36;7.15;;;2.40;;
846;SDS011;410;48.954;9.474;2023-03-11T09:51:49;4.68;;;2.08;;
846;SDS011;410;48.954;9.474;2023-03-11T09:53:58;5.10;;;1.70;;
846;SDS011;410;48.954;9.474;2023-03-11T09:56:06;4.22;;;1.60;;
846;SDS011;410;48.954;9.474;2023-03-11T09:58:11;3.55;;;2.10;;
846;SDS011;410;48.954;9.474;2023-03-11T10:00:16;4.50;;;1.60;;
846;SDS011;410;48.954;9.474;2023-03-11T10:02:23;6.20;;;2.22;;
846;SDS011;410;48.954;9.474;2023-03-11T10:04:29;2.20;;;1.70;;
846;SDS011;410;48.954;9.474;2023-03-11T10:06:35;5.90;;;3.55;;
846;SDS011;410;48.954;9.474;2023-03-11T10:08:40;6.78;;;2.00;;
846;SDS011;410;48.954;9.474;2023-03-11T10:10:48;6.70;;;1.88;;
846;SDS011;410;48.954;9.474;2023-03-11T10:12:58;3.45;;;1.60;;
846;SDS011;410;48.954;9.474;2023-03-11T10:15:18;2.30;;;1.40;;
846;SDS011;410;48.954;9.474;2023-03-11T10:17:35;1.95;;;1.48;;
846;SDS011;410;48.954;9.474;2023-03-11T10:19:47;5.10;;;1.83;;
846;SDS011;410;48.954;9.474;2023-03-11T10:21:55;2.30;;;1.63;;
846;SDS011;410;48.954;9.474;2023-03-11T10:24:09;3.28;;;1.52;;
846;SDS011;410;48.954;9.474;2023-03-11T10:26:19;2.35;;;1.27;;
846;SDS011;410;48.954;9.474;2023-03-11T10:28:26;3.40;;;1.40;;
846;SDS011;410;48.954;9.474;2023-03-11T10:30:34;3.97;;;1.55;;
846;SDS011;410;48.954;9.474;2023-03-11T10:32:40;2.35;;;1.30;;
846;SDS011;410;48.954;9.474;2023-03-11T10:34:49;2.45;;;1.30;;
846;SDS011;410;48.954;9.474;2023-03-11T10:36:58;2.03;;;1.10;;
846;SDS011;410;48.954;9.474;2023-03-11T10:39:04;2.13;;;1.35;;
846;SDS011;410;48.954;9.474;2023-03-11T10:41:12;2.92;;;1.40;;
846;SDS011;410;48.954;9.474;2023-03-11T10:43:20;4.10;;;1.50;;
846;SDS011;410;48.954;9.474;2023-03-11T10:45:36;3.83;;;1.50;;
846;SDS011;410;48.954;9.474;2023-03-11T10:47:42;2.38;;;1.40;;
846;SDS011;410;48.954;9.474;2023-03-11T10:49:45;5.75;;;1.73;;
846;SDS011;410;48.954;9.474;2023-03-11T10:51:49;4.28;;;1.58;;
846;SDS011;410;48.954;9.474;2023-03-11T10:53:58;1.70;;;1.20;;
846;SDS011;410;48.954;9.474;2023-03-11T10:56:02;3.25;;;1.40;;
846;SDS011;410;48.954;9.474;2023-03-11T10:58:06;2.20;;;1.20;;
846;SDS011;410;48.954;9.474;2023-03-11T11:00:27;4.43;;;1.50;;
846;SDS011;410;48.954;9.474;2023-03-11T11:02:33;8.90;;;3.55;;
846;SDS011;410;48.954;9.474;2023-03-11T11:04:44;2.60;;;1.20;;
846;SDS011;410;48.954;9.474;2023-03-11T11:06:48;3.35;;;1.70;;
846;SDS011;410;48.954;9.474;2023-03-11T11:09:12;3.03;;;1.45;;
846;SDS011;410;48.954;9.474;2023-03-11T11:11:21;2.20;;;1.40;;
846;SDS011;410;48.954;9.474;2023-03-11T11:13:26;3.22;;;1.80;;
846;SDS011;410;48.954;9.474;2023-03-11T11:15:33;5.85;;;2.90;;
846;SDS011;410;48.954;9.474;2023-03-11T11:17:37;7.28;;;2.90;;
846;SDS011;410;48.954;9.474;2023-03-11T11:19:42;3.80;;;1.25;;
846;SDS011;410;48.954;9.474;2023-03-11T11:21:46;3.10;;;1.80;;
846;SDS011;410;48.954;9.474;2023-03-11T11:23:59;5.50;;;2.05;;
846;SDS011;410;48.954;9.474;2023-03-11T11:26:09;5.25;;;1.60;;
846;SDS011;410;48.954;9.474;2023-03-11T11:28:17;3.08;;;1.52;;
846;SDS011;410;48.954;9.474;2023-03-11T11:30:22;4.07;;;2.00;;
846;SDS011;410;48.954;9.474;2023-03-11T11:32:27;3.30;;;1.52;;
846;SDS011;410;48.954;9.474;2023-03-11T11:34:31;3.47;;;1.55;;
846;SDS011;410;48.954;9.474;2023-03-11T11:36:35;2.40;;;1.52;;
846;SDS011;410;48.954;9.474;2023-03-11T11:38:39;2.45;;;1.45;;
846;SDS011;410;48.954;9.474;2023-03-11T11:40:43;2.83;;;1.50;;
846;SDS011;410;48.954;9.474;2023-03-11T11:42:50;2.40;;;1.70;;
846;SDS011;410;48.954;9.474;2023-03-11T11:44:57;3.67;;;1.63;;
846;SDS011;410;48.954;9.474;2023-03-11T11:47:05;2.65;;;1.50;;
846;SDS011;410;48.954;9.474;2023-03-11T11:49:15;3.65;;;1.67;;
846;SDS011;410;48.954;9.474;2023-03-11T11:51:21;2.45;;;1.42;;
846;SDS011;410;48.954;9.474;2023-03-11T11:53:27;4.15;;;1.60;;
846;SDS011;410;48.954;9.474;2023-03-11T11:55:35;3.53;;;1.50;;
846;SDS011;410;48.954;9.474;2023-03-11T11:57:41;2.88;;;1.70;;
846;SDS011;410;48.954;9.474;2023-03-11T11:59:44;3.45;;;1.85;;
846;SDS011;410;48.954;9.474;2023-03-11T12:01:49;3.40;;;1.80;;
846;SDS011;410;48.954;9.474;2023-03-11T12:04:04;3.83;;;1.30;;
846;SDS011;410;48.954;9.474;2023-03-11T12:06:38;2.15;;;1.23;;
846;SDS011;410;48.954;9.474;2023-03-11T12:08:46;2.80;;;1.33;;
846;SDS011;410;48.954;9.474;2023-03-11T12:10:57;3.90;;;1.50;;
846;SDS011;410;48.954;9.474;2023-03-11T12:13:11;2.53;;;1.60;;
846;SDS011;410;48.954;9.474;2023-03-11T12:15:22;4.50;;;1.85;;
846;SDS011;410;48.954;9.474;2023-03-11T12:17:28;6.25;;;2.22;;
846;SDS011;410;48.954;9.474;2023-03-11T12:19:38;2.88;;;1.50;;
846;SDS011;410;48.954;9.474;2023-03-11T12:21:49;3.40;;;1.60;;
846;SDS011;410;48.954;9.474;2023-03-11T12:24:10;4.45;;;2.17;;
846;SDS011;410;48.954;9.474;2023-03-11T12:26:23;2.70;;;1.10;;
846;SDS011;410;48.954;9.474;2023-03-11T12:28:29;6.15;;;1.65;;
846;SDS011;410;48.954;9.474;2023-03-11T12:30:40;4.47;;;1.60;;
846;SDS011;410;48.954;9.474;2023-03-11T12:32:46;3.60;;;1.48;;
846;SDS011;410;48.954;9.474;2023-03-11T12:34:52;1.85;;;1.38;;
846;SDS011;410;48.954;9.474;2023-03-11T12:36:56;2.85;;;1.67;;
846;SDS011;410;48.954;9.474;2023-03-11T12:39:03;2.28;;;1.30;;
846;SDS011;410;48.954;9.474;2023-03-11T12:41:24;6.97;;;3.85;;
846;SDS011;410;48.954;9.474;2023-03-11T12:46:01;13.43;;;2.60;;
846;SDS011;410;48.954;9.474;2023-03-11T12:48:30;9.32;;;2.60;;
846;SDS011;410;48.954;9.474;2023-03-11T12:50:37;1.70;;;0.98;;
846;SDS011;410;48.954;9.474;2023-03-11T12:52:51;2.40;;;1.40;;
846;SDS011;410;48.954;9.474;2023-03-11T12:57:33;2.55;;;1.20;;
846;SDS011;410;48.954;9.474;2023-03-11T13:02:32;5.18;;;1.98;;
846;SDS011;410;48.954;9.474;2023-03-11T13:04:55;3.65;;;1.58;;
846;SDS011;410;48.954;9.474;2023-03-11T13:09:38;5.35;;;1.70;;
846;SDS011;410;48.954;9.474;2023-03-11T13:11:43;4.18;;;1.95;;
846;SDS011;410;48.954;9.474;2023-03-11T13:13:47;2.80;;;1.55;;
846;SDS011;410;48.954;9.474;2023-03-11T13:15:50;5.78;;;1.83;;
846;SDS011;410;48.954;9.474;2023-03-11T13:17:57;4.63;;;1.63;;
846;SDS011;410;48.954;9.474;2023-03-11T13:20:01;3.95;;;1.70;;
846;SDS011;410;48.954;9.474;2023-03-11T13:22:04;5.40;;;2.03;;
846;SDS011;410;48.954;9.474;2023-03-11T13:26:51;3.38;;;1.33;;
846;SDS011;410;48.954;9.474;2023-03-11T13:29:04;4.72;;;1.63;;
846;SDS011;410;48.954;9.474;2023-03-11T13:31:19;2.92;;;1.48;;
846;SDS011;410;48.954;9.474;2023-03-11T13:33:47;2.60;;;1.58;;
846;SDS011;410;48.954;9.474;2023-03-11T13:35:59;3.88;;;1.23;;
846;SDS011;410;48.954;9.474;2023-03-11T13:38:12;4.00;;;1.85;;
846;SDS011;410;48.954;9.474;2023-03-11T13:40:29;3.67;;;1.65;;